sensor_id;sensor_type;location;lat;lon;timestamp;temperature;humidity
23395;DHT22;11870;53.084;18.206;2023-04-06T07:56:06;14.20;45.60
23395;DHT22;11870;53.084;18.206;2023-04-06T08:05:52;15.60;34.30
23395;DHT22;11870;53.084;18.206;2023-04-06T08:35:13;11.80;39.40
23395;DHT22;11870;53.084;18.206;2023-04-06T08:54:46;12.10;36.40
23395;DHT22;11870;53.084;18.206;2023-04-06T09:02:08;13.40;33.30
23395;DHT22;11870;53.084;18.206;2023-04-06T09:14:38;11.80;35.70
23395;DHT22;11870;53.084;18.206;2023-04-06T09:22:02;12.40;44.50
23395;DHT22;11870;53.084;18.206;2023-04-06T09:29:23;14.30;33.50
23395;DHT22;11870;53.084;18.206;2023-04-06T09:34:22;14.10;31.30
23395;DHT22;11870;53.084;18.206;2023-04-06T09:39:20;14.00;32.30
23395;DHT22;11870;53.084;18.206;2023-04-06T09:41:50;13.80;32.10
23395;DHT22;11870;53.084;18.206;2023-04-06T09:46:43;13.60;33.10
23395;DHT22;11870;53.084;18.206;2023-04-06T09:49:10;13.40;32.70
23395;DHT22;11870;53.084;18.206;2023-04-06T09:51:44;13.20;33.30
23395;DHT22;11870;53.084;18.206;2023-04-06T10:06:46;14.10;34.20
23395;DHT22;11870;53.084;18.206;2023-04-06T10:11:45;15.00;31.70
23395;DHT22;11870;53.084;18.206;2023-04-06T10:19:12;17.00;28.20
23395;DHT22;11870;53.084;18.206;2023-04-06T10:21:40;17.30;28.40
23395;DHT22;11870;53.084;18.206;2023-04-06T10:24:08;17.70;27.10
23395;DHT22;11870;53.084;18.206;2023-04-06T10:29:03;17.00;26.50
23395;DHT22;11870;53.084;18.206;2023-04-06T10:34:00;14.80;30.00
23395;DHT22;11870;53.084;18.206;2023-04-06T10:36:36;14.20;29.70
23395;DHT22;11870;53.084;18.206;2023-04-06T10:39:04;14.10;32.30
23395;DHT22;11870;53.084;18.206;2023-04-06T10:41:44;13.40;31.40
23395;DHT22;11870;53.084;18.206;2023-04-06T10:44:23;13.00;32.00
23395;DHT22;11870;53.084;18.206;2023-04-06T10:46:57;15.10;34.40
23395;DHT22;11870;53.084;18.206;2023-04-06T10:49:24;13.00;34.30
23395;DHT22;11870;53.084;18.206;2023-04-06T10:51:54;13.30;34.60
23395;DHT22;11870;53.084;18.206;2023-04-06T10:54:24;13.40;33.60
23395;DHT22;11870;53.084;18.206;2023-04-06T10:59:21;12.80;34.10
23395;DHT22;11870;53.084;18.206;2023-04-06T11:04:18;12.50;33.80
23395;DHT22;11870;53.084;18.206;2023-04-06T11:06:48;12.40;34.20
23395;DHT22;11870;53.084;18.206;2023-04-06T11:09:28;12.40;36.50
23395;DHT22;11870;53.084;18.206;2023-04-06T11:21:49;12.30;34.90
23395;DHT22;11870;53.084;18.206;2023-04-06T11:24:20;12.10;34.60
23395;DHT22;11870;53.084;18.206;2023-04-06T11:26:54;12.00;35.60
23395;DHT22;11870;53.084;18.206;2023-04-06T11:29:22;11.80;36.20
23395;DHT22;11870;53.084;18.206;2023-04-06T11:31:52;11.90;36.60
23395;DHT22;11870;53.084;18.206;2023-04-06T11:36:47;12.20;36.00
23395;DHT22;11870;53.084;18.206;2023-04-06T11:39:21;12.50;35.90
23395;DHT22;11870;53.084;18.206;2023-04-06T14:11:13;11.10;45.00
23395;DHT22;11870;53.084;18.206;2023-04-06T14:18:36;11.00;43.50
